Time;durP1;ratioP1;P1;durP2;ratioP2;P2;SDS_P1;SDS_P2;PMS_P1;PMS_P2;Temp;Humidity;BMP_temperature;BMP_pressure;BME280_temperature;BME280_humidity;BME280_pressure;Samples;Min_cycle;Max_cycle;Signal;HPM_P1;HPM_P2
2021/12/10 00:00:49;;;;;;;4.93;1.15;;;7.10;70.10;;;;;;2345590;54;20929;-73
2021/12/10 00:03:18;;;;;;;4.05;0.80;;;7.10;69.80;;;;;;2343974;54;20949;-73
2021/12/10 00:05:51;;;;;;;4.90;1.45;;;6.80;69.80;;;;;;2322477;54;20996;-74
2021/12/10 00:08:17;;;;;;;3.28;0.90;;;7.00;70.20;;;;;;2337687;54;20945;-72
2021/12/10 00:10:45;;;;;;;3.70;0.90;;;7.00;70.20;;;;;;2341440;54;20909;-73
2021/12/10 00:13:12;;;;;;;3.33;0.90;;;7.00;70.10;;;;;;2587322;53;20984;-73
2021/12/10 00:15:40;;;;;;;2.87;0.90;;;7.00;70.00;;;;;;2341385;54;21072;-72
2021/12/10 00:21:10;;;;;;;5.22;0.98;;;6.90;69.60;;;;;;2586590;53;21024;-73
2021/12/10 00:23:36;;;;;;;4.80;0.80;;;6.90;69.80;;;;;;2340145;54;20991;-73
2021/12/10 00:26:03;;;;;;;5.80;1.00;;;6.80;69.70;;;;;;2558774;53;20932;-73
2021/12/10 00:28:38;;;;;;;4.70;0.98;;;6.80;69.70;;;;;;2583764;53;20971;-72
2021/12/10 00:31:30;;;;;;;3.83;1.10;;;6.70;69.20;;;;;;2528202;54;20949;-73
2021/12/10 00:34:26;;;;;;;4.50;1.40;;;6.70;70.00;;;;;;2341461;54;21455;-74
2021/12/10 00:36:53;;;;;;;4.35;1.73;;;6.70;69.30;;;;;;2341000;54;21397;-73
2021/12/10 00:39:23;;;;;;;5.10;1.65;;;6.60;69.40;;;;;;2585735;53;20980;-74
2021/12/10 00:41:51;;;;;;;4.65;1.67;;;6.60;69.50;;;;;;2316364;54;20944;-73
2021/12/10 00:44:18;;;;;;;4.82;1.40;;;6.60;69.60;;;;;;2587120;53;20937;-74
2021/12/10 00:46:44;;;;;;;3.35;1.02;;;6.50;69.50;;;;;;2316200;54;20929;-72
2021/12/10 00:49:11;;;;;;;5.37;1.00;;;6.50;69.60;;;;;;2557262;53;21106;-72
2021/12/10 00:51:37;;;;;;;2.30;0.90;;;6.50;69.70;;;;;;2586690;53;21078;-73
2021/12/10 00:54:04;;;;;;;3.28;0.82;;;6.50;69.70;;;;;;2342331;54;21848;-72
2021/12/10 00:56:33;;;;;;;3.35;0.90;;;6.40;69.60;;;;;;2341548;54;21615;-73
2021/12/10 00:59:00;;;;;;;6.07;1.45;;;6.40;69.70;;;;;;2559597;53;20963;-73
2021/12/10 01:01:28;;;;;;;3.35;0.95;;;6.40;69.70;;;;;;2338788;54;21020;-71
2021/12/10 01:04:19;;;;;;;3.87;1.00;;;6.40;69.80;;;;;;2585830;53;20952;-72
2021/12/10 01:06:49;;;;;;;3.17;0.90;;;6.40;69.80;;;;;;2564911;53;21020;-73
2021/12/10 01:09:26;;;;;;;5.20;0.98;;;6.30;69.70;;;;;;2588062;53;20925;-72
2021/12/10 01:12:05;;;;;;;6.35;1.00;;;6.30;69.50;;;;;;2587762;53;21016;-71
2021/12/10 01:15:37;;;;;;;4.20;0.95;;;6.30;69.80;;;;;;2555813;53;20946;-72
2021/12/10 01:23:55;;;;;;;2.25;0.75;;;6.30;70.00;;;;;;2574665;53;20962;-72
2021/12/10 01:31:05;;;;;;;1.37;0.65;;;6.20;69.80;;;;;;2587613;53;21484;-72
2021/12/10 01:33:31;;;;;;;5.75;1.20;;;6.20;69.00;;;;;;2338879;54;21087;-74
2021/12/10 01:35:59;;;;;;;3.25;0.90;;;6.20;70.10;;;;;;2562020;53;20994;-72
2021/12/10 01:38:26;;;;;;;3.95;1.30;;;6.20;70.00;;;;;;2578513;53;20933;-72
2021/12/10 01:40:58;;;;;;;4.82;0.95;;;6.20;70.10;;;;;;2341666;54;20965;-73
2021/12/10 01:43:25;;;;;;;5.30;1.02;;;6.20;70.00;;;;;;2556489;53;21502;-73
2021/12/10 01:46:01;;;;;;;2.05;0.70;;;6.20;70.10;;;;;;2579661;53;20975;-73
2021/12/10 01:48:34;;;;;;;3.90;0.75;;;6.20;70.00;;;;;;2341745;54;20988;-71
2021/12/10 01:51:01;;;;;;;5.10;0.85;;;6.20;70.00;;;;;;2587459;53;21035;-73
2021/12/10 01:53:29;;;;;;;1.95;0.80;;;6.20;70.10;;;;;;2587552;53;21044;-71
2021/12/10 01:55:57;;;;;;;6.82;0.90;;;6.20;70.00;;;;;;2587948;53;20986;-73
2021/12/10 01:58:25;;;;;;;8.00;1.15;;;6.20;70.20;;;;;;2340784;54;21003;-73
2021/12/10 02:01:02;;;;;;;1.52;0.52;;;6.20;70.20;;;;;;2323268;54;21116;-72
2021/12/10 02:03:30;;;;;;;4.00;0.80;;;6.20;70.00;;;;;;2536177;53;21036;-73
2021/12/10 02:05:57;;;;;;;3.25;0.75;;;6.10;70.10;;;;;;2539732;53;21467;-72
2021/12/10 02:08:23;;;;;;;4.60;0.90;;;6.10;70.20;;;;;;2285863;55;21074;-72
2021/12/10 02:10:49;;;;;;;7.32;0.90;;;6.10;70.30;;;;;;2542122;53;21012;-73
2021/12/10 02:13:15;;;;;;;1.95;0.70;;;6.10;70.30;;;;;;2293424;54;20952;-73
2021/12/10 02:15:42;;;;;;;3.58;0.68;;;6.10;70.50;;;;;;2564708;53;21004;-73
2021/12/10 02:18:10;;;;;;;1.98;0.62;;;6.10;70.40;;;;;;2561531;53;21030;-74
2021/12/10 02:20:53;;;;;;;3.05;0.60;;;6.10;70.40;;;;;;2341850;54;21051;-74
2021/12/10 02:23:19;;;;;;;3.20;1.15;;;6.20;70.40;;;;;;2341222;54;20956;-73
2021/12/10 02:25:46;;;;;;;4.30;0.60;;;6.10;70.30;;;;;;2564163;53;20973;-72
2021/12/10 02:28:13;;;;;;;4.60;0.60;;;6.20;70.30;;;;;;2339777;54;20944;-72
2021/12/10 02:30:39;;;;;;;4.78;0.90;;;6.20;70.30;;;;;;2571959;53;20942;-74
2021/12/10 02:33:06;;;;;;;2.08;0.70;;;6.20;70.30;;;;;;2576184;53;20980;-72
2021/12/10 02:35:33;;;;;;;2.10;0.60;;;6.10;70.10;;;;;;2323213;54;20993;-72
2021/12/10 02:38:02;;;;;;;4.00;0.70;;;6.10;70.00;;;;;;2588350;53;20956;-73
2021/12/10 02:40:30;;;;;;;6.10;1.02;;;6.10;70.00;;;;;;2335573;54;20930;-73
2021/12/10 02:42:57;;;;;;;1.58;0.52;;;6.10;69.90;;;;;;2573840;53;21040;-72
2021/12/10 02:45:24;;;;;;;1.52;0.60;;;6.10;69.90;;;;;;2588521;53;20969;-72
2021/12/10 02:47:53;;;;;;;1.75;0.50;;;6.10;69.90;;;;;;2336701;54;21490;-72
2021/12/10 02:50:22;;;;;;;2.80;0.68;;;6.10;70.00;;;;;;2568451;53;21025;-72
2021/12/10 02:52:48;;;;;;;2.30;0.60;;;6.10;69.90;;;;;;2334670;54;21044;-72
2021/12/10 02:55:15;;;;;;;3.15;0.65;;;6.00;69.90;;;;;;2323903;54;20945;-73
2021/12/10 02:57:42;;;;;;;3.65;0.70;;;6.10;70.10;;;;;;2587190;53;21304;-73
2021/12/10 03:00:11;;;;;;;4.55;0.62;;;6.10;70.10;;;;;;2326525;54;20966;-70
2021/12/10 03:02:41;;;;;;;2.45;0.60;;;6.00;70.00;;;;;;2320443;54;21136;-72
2021/12/10 03:05:07;;;;;;;3.05;0.50;;;6.10;69.90;;;;;;2580822;53;21034;-73
2021/12/10 03:07:36;;;;;;;3.67;0.45;;;6.10;70.00;;;;;;2549488;54;21057;-73
2021/12/10 03:10:04;;;;;;;1.75;0.60;;;6.00;69.80;;;;;;2510090;54;21032;-73
2021/12/10 03:12:31;;;;;;;2.33;0.47;;;6.00;69.80;;;;;;2315021;54;20916;-72
2021/12/10 03:14:57;;;;;;;3.42;0.65;;;6.00;69.80;;;;;;2314190;54;21814;-73
2021/12/10 03:17:26;;;;;;;3.42;0.90;;;6.00;69.70;;;;;;2572506;53;21314;-72
2021/12/10 03:19:53;;;;;;;1.70;0.60;;;6.00;69.70;;;;;;2555662;53;21035;-71
2021/12/10 03:22:19;;;;;;;1.75;0.45;;;6.00;69.80;;;;;;2291976;54;20919;-72
2021/12/10 03:24:45;;;;;;;2.08;0.37;;;6.00;69.90;;;;;;2315392;54;20977;-72
2021/12/10 03:27:15;;;;;;;1.55;0.43;;;5.90;69.70;;;;;;2575979;53;21517;-73
2021/12/10 03:29:42;;;;;;;2.85;0.60;;;5.90;69.60;;;;;;2570065;53;20962;-73
2021/12/10 03:32:16;;;;;;;3.25;0.82;;;5.90;69.60;;;;;;2333803;54;20965;-74
2021/12/10 03:34:42;;;;;;;2.53;0.60;;;5.90;69.50;;;;;;2547439;54;21060;-72
2021/12/10 03:37:12;;;;;;;3.33;0.50;;;5.90;69.60;;;;;;2566005;53;21501;-72
2021/12/10 03:39:38;;;;;;;2.78;0.45;;;5.90;69.60;;;;;;2587958;53;20917;-73
2021/12/10 03:42:06;;;;;;;1.67;0.60;;;5.90;69.60;;;;;;2341500;54;21016;-73
2021/12/10 03:44:32;;;;;;;2.53;0.40;;;5.80;69.50;;;;;;2529716;53;21113;-71
2021/12/10 03:46:58;;;;;;;3.20;0.60;;;5.80;69.40;;;;;;2340253;54;21445;-72
2021/12/10 03:49:27;;;;;;;3.83;0.40;;;5.80;69.40;;;;;;2587906;53;21511;-72
2021/12/10 03:51:53;;;;;;;2.37;0.40;;;5.80;69.40;;;;;;2341369;54;21501;-73
2021/12/10 03:54:20;;;;;;;3.80;0.73;;;5.80;69.40;;;;;;2584530;53;20928;-71
2021/12/10 03:56:49;;;;;;;2.10;0.57;;;5.70;69.50;;;;;;2557981;53;20993;-73
2021/12/10 03:59:17;;;;;;;1.62;0.40;;;5.70;69.50;;;;;;2341789;54;20913;-71
2021/12/10 04:01:45;;;;;;;2.83;0.50;;;5.70;69.60;;;;;;2337338;54;21034;-73
2021/12/10 04:04:18;;;;;;;3.45;0.50;;;5.70;69.70;;;;;;2323293;54;20948;-73
2021/12/10 04:06:44;;;;;;;2.00;0.50;;;5.70;69.70;;;;;;2340999;54;21017;-74
2021/12/10 04:09:10;;;;;;;2.05;0.60;;;5.70;69.70;;;;;;2587300;53;20905;-72
2021/12/10 04:11:36;;;;;;;2.92;0.60;;;5.70;69.70;;;;;;2587823;53;21492;-71
2021/12/10 04:14:05;;;;;;;1.42;0.57;;;5.70;69.70;;;;;;2555098;53;21457;-73
2021/12/10 04:16:33;;;;;;;3.58;0.80;;;5.70;69.70;;;;;;2339127;54;21408;-72
2021/12/10 04:19:00;;;;;;;3.47;0.60;;;5.70;69.50;;;;;;2587735;53;21033;-72
2021/12/10 04:21:27;;;;;;;2.25;0.60;;;5.60;69.40;;;;;;2343052;54;20951;-74
2021/12/10 04:23:53;;;;;;;1.37;0.55;;;5.60;69.30;;;;;;2325364;54;21036;-73
2021/12/10 04:26:21;;;;;;;2.47;0.60;;;5.60;69.30;;;;;;2540845;53;21009;-71
2021/12/10 04:28:47;;;;;;;2.08;0.60;;;5.60;69.30;;;;;;2557607;53;20946;-73
2021/12/10 04:31:14;;;;;;;1.83;0.50;;;5.60;69.40;;;;;;2576770;53;20925;-72
2021/12/10 04:33:40;;;;;;;3.45;0.70;;;5.50;69.20;;;;;;2554953;53;20965;-74
2021/12/10 04:36:07;;;;;;;1.62;0.50;;;5.50;69.20;;;;;;2332839;54;20930;-72
2021/12/10 04:38:33;;;;;;;4.12;0.70;;;5.50;69.20;;;;;;2317990;54;21445;-73
2021/12/10 04:41:04;;;;;;;3.58;0.60;;;5.50;69.20;;;;;;2325768;54;21000;-73
2021/12/10 04:43:32;;;;;;;2.00;0.52;;;5.40;69.00;;;;;;2588062;53;20945;-72
2021/12/10 04:45:58;;;;;;;2.37;0.68;;;5.40;69.00;;;;;;2342833;54;20969;-73
2021/12/10 04:48:25;;;;;;;1.98;0.60;;;5.40;69.00;;;;;;2557110;53;20957;-72
2021/12/10 04:50:51;;;;;;;1.23;0.50;;;5.30;68.90;;;;;;2319683;54;20997;-72
2021/12/10 04:53:18;;;;;;;2.35;0.60;;;5.30;69.00;;;;;;2315441;54;20956;-72
2021/12/10 04:55:47;;;;;;;1.40;0.55;;;5.30;69.10;;;;;;2564403;53;20950;-73
2021/12/10 04:58:13;;;;;;;1.40;0.60;;;5.30;69.00;;;;;;2335152;54;20945;-73
2021/12/10 05:00:43;;;;;;;2.05;0.70;;;5.30;69.10;;;;;;2318209;55;20965;-73
2021/12/10 05:03:11;;;;;;;2.85;0.93;;;5.20;69.00;;;;;;2588085;53;20949;-72
2021/12/10 05:05:38;;;;;;;3.40;0.88;;;5.20;69.20;;;;;;2341055;54;21696;-73
2021/12/10 05:08:05;;;;;;;3.12;0.80;;;5.20;69.30;;;;;;2313283;54;20977;-72
2021/12/10 05:10:32;;;;;;;3.28;0.90;;;5.20;69.30;;;;;;2563106;53;21086;-71
2021/12/10 05:12:59;;;;;;;1.60;0.60;;;5.20;69.40;;;;;;2566424;53;21048;-73
2021/12/10 05:15:26;;;;;;;5.30;0.70;;;5.20;69.40;;;;;;2335135;54;21452;-72
2021/12/10 05:17:53;;;;;;;1.92;0.70;;;5.20;69.60;;;;;;2341552;54;20929;-74
2021/12/10 05:20:35;;;;;;;3.92;0.73;;;5.20;69.60;;;;;;2341461;54;20996;-72
2021/12/10 05:23:02;;;;;;;1.73;0.60;;;5.20;69.60;;;;;;2334824;54;21026;-72
2021/12/10 05:25:29;;;;;;;2.20;0.70;;;5.20;69.80;;;;;;2324425;54;21057;-72
2021/12/10 05:27:59;;;;;;;2.30;0.70;;;5.20;70.00;;;;;;2587029;53;21076;-73
2021/12/10 05:30:27;;;;;;;1.50;0.60;;;5.20;70.10;;;;;;2340967;54;21004;-73
2021/12/10 05:32:54;;;;;;;1.87;0.70;;;5.20;70.10;;;;;;2340768;54;21811;-71
2021/12/10 05:35:20;;;;;;;2.35;0.77;;;5.20;70.20;;;;;;2341221;54;20905;-71
2021/12/10 05:37:47;;;;;;;3.37;0.90;;;5.20;70.30;;;;;;2341614;54;21018;-71
2021/12/10 05:40:14;;;;;;;2.37;0.80;;;5.20;70.50;;;;;;2341923;54;20956;-71
2021/12/10 05:42:43;;;;;;;2.97;0.80;;;5.30;70.60;;;;;;2587876;53;21008;-72
2021/12/10 05:45:09;;;;;;;3.25;0.90;;;5.30;70.60;;;;;;2341492;54;21017;-71
2021/12/10 05:47:36;;;;;;;4.28;1.50;;;5.30;70.80;;;;;;2587461;53;21091;-73
2021/12/10 05:50:04;;;;;;;5.12;1.70;;;5.40;70.90;;;;;;2341975;54;21001;-71
2021/12/10 05:52:33;;;;;;;7.10;2.97;;;5.40;70.90;;;;;;2341682;54;20992;-72
2021/12/10 05:55:00;;;;;;;5.47;1.80;;;5.40;70.80;;;;;;2340431;54;20925;-71
2021/12/10 05:57:26;;;;;;;5.15;1.17;;;5.50;71.00;;;;;;2555044;53;21470;-73
2021/12/10 05:59:52;;;;;;;2.33;1.00;;;5.50;71.00;;;;;;2329071;54;20926;-70
2021/12/10 06:02:19;;;;;;;4.12;1.10;;;5.50;70.90;;;;;;2547748;54;21066;-72
2021/12/10 06:04:45;;;;;;;2.15;0.80;;;5.60;71.00;;;;;;2572611;53;21022;-72
2021/12/10 06:07:12;;;;;;;6.03;1.27;;;5.60;70.80;;;;;;2323065;54;20949;-73
2021/12/10 06:09:39;;;;;;;2.70;0.88;;;5.60;70.90;;;;;;2319530;54;21797;-72
2021/12/10 06:12:06;;;;;;;3.40;1.00;;;5.70;71.00;;;;;;2339420;54;21467;-71
2021/12/10 06:14:32;;;;;;;2.33;0.93;;;5.70;71.00;;;;;;2341004;54;20937;-71
2021/12/10 06:16:58;;;;;;;3.25;1.30;;;5.70;70.80;;;;;;2330354;54;21377;-71
2021/12/10 06:19:24;;;;;;;3.40;1.00;;;5.70;70.80;;;;;;2573633;53;21001;-71
2021/12/10 06:21:52;;;;;;;4.85;1.80;;;5.80;70.80;;;;;;2325749;54;20974;-71
2021/12/10 06:24:18;;;;;;;3.58;1.48;;;5.80;70.70;;;;;;2330643;54;20964;-70
2021/12/10 06:26:45;;;;;;;4.28;1.65;;;5.80;70.80;;;;;;2321902;54;21016;-73
2021/12/10 06:29:11;;;;;;;5.15;1.52;;;5.80;70.70;;;;;;2341656;54;21005;-72
2021/12/10 06:31:37;;;;;;;3.05;1.25;;;5.80;70.60;;;;;;2587645;53;20977;-73
2021/12/10 06:34:06;;;;;;;3.33;1.40;;;5.80;70.60;;;;;;2341890;54;20965;-74
2021/12/10 06:36:35;;;;;;;7.90;2.90;;;5.90;70.60;;;;;;2341861;54;20921;-72
2021/12/10 06:39:03;;;;;;;4.40;1.83;;;5.90;70.60;;;;;;2319413;54;20929;-72
2021/12/10 06:41:29;;;;;;;5.03;2.25;;;5.90;70.60;;;;;;2337532;54;21022;-71
2021/12/10 06:43:55;;;;;;;4.90;1.92;;;6.00;70.70;;;;;;2565392;53;21827;-72
2021/12/10 06:46:24;;;;;;;3.83;1.98;;;6.00;70.70;;;;;;2341571;54;20933;-73
2021/12/10 06:48:51;;;;;;;5.60;1.75;;;6.00;70.70;;;;;;2587808;53;20964;-73
2021/12/10 06:51:19;;;;;;;2.92;1.40;;;6.10;70.70;;;;;;2587714;53;20924;-71
2021/12/10 06:53:46;;;;;;;3.17;1.25;;;6.10;70.80;;;;;;2587722;53;21000;-72
2021/12/10 06:56:13;;;;;;;2.78;1.02;;;6.10;70.80;;;;;;2341434;54;20921;-73
2021/12/10 06:58:41;;;;;;;2.97;1.10;;;6.10;70.70;;;;;;2341442;54;21032;-73
2021/12/10 07:01:14;;;;;;;3.90;1.20;;;6.20;70.80;;;;;;2341821;54;21012;-73
2021/12/10 07:03:45;;;;;;;3.55;1.25;;;6.20;70.50;;;;;;2587656;53;21517;-73
2021/12/10 07:06:12;;;;;;;3.40;1.58;;;6.20;70.50;;;;;;2318941;54;20999;-73
2021/12/10 07:08:39;;;;;;;3.53;1.45;;;6.20;70.60;;;;;;2583659;53;20989;-72
2021/12/10 07:11:07;;;;;;;6.55;1.98;;;6.20;70.60;;;;;;2318098;54;20950;-74
2021/12/10 07:13:34;;;;;;;5.57;2.12;;;6.20;70.30;;;;;;2587813;53;21092;-74
2021/12/10 07:16:02;;;;;;;7.30;2.50;;;6.20;70.00;;;;;;2587666;53;21025;-73
2021/12/10 07:18:28;;;;;;;7.10;3.53;;;6.10;69.40;;;;;;2587317;53;20973;-73
2021/12/10 07:20:55;;;;;;;8.18;3.17;;;6.10;69.20;;;;;;2319919;54;21008;-73
2021/12/10 07:23:23;;;;;;;11.40;4.43;;;6.10;69.20;;;;;;2325087;54;20931;-73
2021/12/10 07:25:50;;;;;;;11.32;4.65;;;6.00;69.00;;;;;;2335525;54;20972;-72
2021/12/10 07:28:16;;;;;;;12.37;3.95;;;6.00;69.00;;;;;;2587800;53;20941;-73
2021/12/10 07:30:43;;;;;;;7.28;3.20;;;5.90;69.70;;;;;;2341617;54;20979;-72
2021/12/10 07:33:10;;;;;;;7.80;3.10;;;5.90;69.00;;;;;;2587427;53;21050;-73
2021/12/10 07:35:38;;;;;;;8.68;3.15;;;5.80;69.00;;;;;;2341106;54;20990;-73
2021/12/10 07:38:05;;;;;;;6.03;2.78;;;5.80;69.20;;;;;;2554964;53;21100;-72
2021/12/10 07:40:32;;;;;;;7.65;2.80;;;5.70;69.20;;;;;;2567213;53;21316;-73
2021/12/10 07:42:58;;;;;;;6.20;2.80;;;5.70;69.40;;;;;;2341264;54;21076;-73
2021/12/10 07:45:25;;;;;;;5.93;2.40;;;5.70;69.40;;;;;;2335451;54;21412;-73
2021/12/10 07:47:53;;;;;;;5.82;2.97;;;5.60;70.20;;;;;;2324400;54;20987;-73
2021/12/10 07:50:25;;;;;;;6.55;3.30;;;5.70;69.40;;;;;;2588277;53;21024;-73
2021/12/10 07:52:55;;;;;;;7.72;2.95;;;5.60;69.10;;;;;;2555889;53;20933;-73
2021/12/10 07:55:27;;;;;;;8.45;2.67;;;5.60;69.20;;;;;;2556127;53;20953;-72
2021/12/10 07:57:53;;;;;;;6.03;2.50;;;5.60;69.00;;;;;;2343946;54;20957;-71
2021/12/10 08:00:21;;;;;;;7.47;2.17;;;5.60;68.90;;;;;;2341912;54;20932;-73
2021/12/10 08:02:48;;;;;;;5.43;2.20;;;5.50;68.60;;;;;;2588315;53;20953;-72
2021/12/10 08:05:14;;;;;;;7.57;1.70;;;5.50;68.50;;;;;;2320834;54;21026;-73
2021/12/10 08:07:44;;;;;;;5.65;2.05;;;5.40;68.40;;;;;;2339630;54;21430;-70
2021/12/10 08:10:11;;;;;;;4.95;1.92;;;5.40;68.40;;;;;;2588055;53;20980;-71
2021/12/10 08:12:38;;;;;;;5.20;2.55;;;5.40;68.50;;;;;;2323828;54;21082;-71
2021/12/10 08:15:05;;;;;;;5.53;2.10;;;5.40;68.60;;;;;;2338788;54;20992;-70
2021/12/10 08:17:34;;;;;;;4.70;2.12;;;5.40;68.70;;;;;;2586815;53;21573;-72
2021/12/10 08:20:03;;;;;;;7.18;2.92;;;5.30;68.70;;;;;;2320158;54;20968;-70
2021/12/10 08:22:30;;;;;;;4.60;2.22;;;5.30;68.80;;;;;;2327301;54;21507;-72
2021/12/10 08:24:56;;;;;;;8.05;2.40;;;5.30;68.90;;;;;;2303824;54;20936;-72
2021/12/10 08:27:23;;;;;;;5.32;2.20;;;5.30;69.00;;;;;;2312669;54;21104;-71
2021/12/10 08:29:50;;;;;;;4.37;2.10;;;5.30;69.10;;;;;;2307339;55;20921;-71
2021/12/10 08:32:20;;;;;;;5.37;2.45;;;5.30;69.10;;;;;;2341900;54;21032;-71
2021/12/10 08:34:48;;;;;;;6.62;2.40;;;5.20;69.10;;;;;;2342695;54;20956;-72
2021/12/10 08:37:15;;;;;;;5.97;2.28;;;5.20;69.10;;;;;;2554390;53;20994;-70
2021/12/10 08:39:41;;;;;;;5.32;1.98;;;5.20;69.20;;;;;;2314276;54;20955;-72
2021/12/10 08:42:08;;;;;;;4.90;1.90;;;5.20;69.40;;;;;;2332708;54;20978;-73
2021/12/10 08:44:36;;;;;;;5.22;1.95;;;5.20;69.40;;;;;;2323934;54;20988;-72
2021/12/10 08:47:04;;;;;;;7.97;1.92;;;5.20;69.60;;;;;;2341508;54;20951;-71
2021/12/10 08:49:33;;;;;;;4.70;2.50;;;5.20;69.70;;;;;;2338560;54;21050;-72
2021/12/10 08:52:00;;;;;;;6.00;2.30;;;5.20;69.90;;;;;;2320079;54;20978;-71
2021/12/10 08:54:28;;;;;;;3.97;1.52;;;5.20;70.10;;;;;;2321919;54;20985;-71
2021/12/10 08:56:54;;;;;;;3.80;1.60;;;5.20;70.40;;;;;;2549338;54;20973;-72
2021/12/10 08:59:24;;;;;;;3.67;1.70;;;5.20;70.60;;;;;;2320679;54;21001;-70
2021/12/10 09:01:57;;;;;;;4.65;1.90;;;5.20;70.80;;;;;;2558640;53;20942;-71
2021/12/10 09:04:23;;;;;;;4.37;1.60;;;5.20;70.90;;;;;;2341688;54;21818;-71
2021/12/10 09:06:54;;;;;;;4.22;1.92;;;5.20;70.90;;;;;;2581370;53;20992;-71
2021/12/10 09:09:21;;;;;;;5.22;1.80;;;5.30;71.20;;;;;;2341426;54;21037;-71
2021/12/10 09:11:51;;;;;;;3.87;1.60;;;5.30;71.20;;;;;;2568659;53;21637;-71
2021/12/10 09:14:20;;;;;;;4.20;2.00;;;5.30;71.30;;;;;;2332239;54;20981;-72
2021/12/10 09:16:48;;;;;;;5.10;1.80;;;5.30;71.40;;;;;;2587921;53;20994;-71
2021/12/10 09:19:16;;;;;;;6.43;2.28;;;5.40;71.60;;;;;;2328983;54;21969;-71
2021/12/10 09:21:43;;;;;;;6.30;3.20;;;5.30;72.20;;;;;;2571340;53;20945;-71
2021/12/10 09:24:10;;;;;;;8.00;3.60;;;5.40;71.70;;;;;;2341085;54;21453;-70
2021/12/10 09:26:38;;;;;;;5.35;2.83;;;5.40;71.80;;;;;;2341792;54;21291;-72
2021/12/10 09:29:09;;;;;;;6.07;2.70;;;5.50;72.00;;;;;;2341867;54;21461;-71
2021/12/10 09:31:38;;;;;;;6.12;2.45;;;5.50;72.00;;;;;;2341710;54;20927;-72
2021/12/10 09:34:05;;;;;;;3.90;2.03;;;5.50;72.10;;;;;;2325143;54;21435;-72
2021/12/10 09:36:31;;;;;;;3.50;1.52;;;5.50;72.10;;;;;;2580220;53;21496;-71
2021/12/10 09:38:58;;;;;;;3.37;1.50;;;5.60;72.10;;;;;;2587788;53;21008;-72
2021/12/10 09:41:29;;;;;;;2.35;1.00;;;5.60;72.30;;;;;;2583270;53;20963;-73
2021/12/10 09:43:56;;;;;;;3.42;1.40;;;5.60;72.40;;;;;;2561094;53;20913;-73
2021/12/10 09:46:28;;;;;;;3.10;1.25;;;5.70;72.80;;;;;;2341645;54;20992;-73
2021/12/10 09:48:55;;;;;;;2.87;1.20;;;5.70;72.90;;;;;;2585263;53;21497;-73
2021/12/10 09:51:27;;;;;;;2.55;1.02;;;5.80;73.10;;;;;;2329480;54;20990;-73
2021/12/10 09:53:56;;;;;;;3.50;1.33;;;5.80;73.90;;;;;;2567385;53;20952;-74
2021/12/10 09:56:22;;;;;;;2.80;1.10;;;5.90;73.20;;;;;;2567499;53;20972;-73
2021/12/10 09:58:49;;;;;;;2.53;1.10;;;5.90;73.20;;;;;;2331908;54;20936;-72
2021/12/10 10:01:28;;;;;;;2.75;1.00;;;6.00;73.40;;;;;;2341985;54;20961;-72
2021/12/10 10:04:00;;;;;;;2.37;1.00;;;6.00;73.20;;;;;;2341776;54;20953;-73
2021/12/10 10:06:33;;;;;;;3.08;1.00;;;6.10;73.30;;;;;;2327456;54;20967;-73
2021/12/10 10:09:01;;;;;;;3.00;1.30;;;6.10;73.10;;;;;;2319948;54;21113;-72
2021/12/10 10:11:42;;;;;;;2.30;1.03;;;6.20;73.10;;;;;;2319618;54;21019;-72
2021/12/10 10:14:09;;;;;;;2.85;1.15;;;6.20;72.80;;;;;;2327990;54;20934;-72
2021/12/10 10:16:35;;;;;;;3.70;1.60;;;6.20;72.70;;;;;;2569699;53;20974;-73
2021/12/10 10:19:02;;;;;;;4.05;2.00;;;6.30;72.70;;;;;;2555043;53;20977;-73
2021/12/10 10:21:31;;;;;;;3.87;1.98;;;6.30;72.70;;;;;;2341682;54;20964;-72
2021/12/10 10:23:57;;;;;;;3.87;2.20;;;6.30;72.60;;;;;;2341697;54;21819;-73
2021/12/10 10:26:31;;;;;;;5.93;2.40;;;6.30;72.50;;;;;;2588118;53;20949;-73
2021/12/10 10:29:08;;;;;;;4.28;2.15;;;6.30;72.30;;;;;;2341030;54;20981;-72
2021/12/10 10:31:34;;;;;;;6.55;3.15;;;6.30;72.20;;;;;;2338145;54;21780;-73
2021/12/10 10:34:01;;;;;;;6.37;3.30;;;6.30;72.00;;;;;;2588033;53;21012;-73
2021/12/10 10:36:30;;;;;;;9.20;3.90;;;6.30;71.90;;;;;;2588129;53;20929;-73
2021/12/10 10:39:09;;;;;;;10.07;4.50;;;6.30;71.80;;;;;;2341675;54;20961;-73
2021/12/10 10:41:37;;;;;;;9.30;3.95;;;6.30;71.70;;;;;;2541950;54;21013;-73
2021/12/10 10:44:05;;;;;;;8.88;3.87;;;6.30;71.50;;;;;;2327487;54;21003;-73
2021/12/10 10:46:32;;;;;;;7.85;3.85;;;6.20;71.10;;;;;;2572921;53;21046;-72
2021/12/10 10:48:59;;;;;;;7.45;4.40;;;6.20;71.10;;;;;;2569370;53;20992;-73
2021/12/10 10:51:31;;;;;;;12.45;6.75;;;6.20;71.10;;;;;;2587826;53;20933;-73
2021/12/10 10:53:58;;;;;;;24.33;13.62;;;6.20;71.20;;;;;;2341604;54;20989;-74
2021/12/10 10:56:39;;;;;;;16.17;11.32;;;6.10;71.20;;;;;;2587864;53;21041;-73
2021/12/10 10:59:14;;;;;;;10.32;7.43;;;6.20;71.20;;;;;;2572950;53;20982;-73
2021/12/10 11:02:08;;;;;;;8.95;4.65;;;6.10;71.10;;;;;;2332448;54;20989;-72
2021/12/10 11:04:45;;;;;;;6.12;3.08;;;6.10;71.40;;;;;;2318423;55;20973;-72
2021/12/10 11:07:24;;;;;;;5.37;2.67;;;6.10;71.50;;;;;;2331612;54;20997;-73
2021/12/10 11:10:02;;;;;;;5.80;2.58;;;6.10;71.40;;;;;;2575660;53;20945;-72
2021/12/10 11:12:32;;;;;;;5.47;2.00;;;6.10;71.40;;;;;;2559396;53;20939;-72
2021/12/10 11:14:59;;;;;;;3.85;2.00;;;6.10;71.70;;;;;;2338708;54;20909;-73
2021/12/10 11:18:09;;;;;;;4.25;2.00;;;6.10;72.00;;;;;;2555224;53;21450;-72
2021/12/10 11:20:42;;;;;;;4.25;2.28;;;6.10;72.20;;;;;;2326449;54;20941;-72
2021/12/10 11:23:09;;;;;;;3.87;2.08;;;6.10;72.20;;;;;;2312101;54;20985;-71
2021/12/10 11:25:42;;;;;;;5.00;2.65;;;6.10;72.30;;;;;;2304235;54;20940;-72
2021/12/10 11:28:12;;;;;;;4.82;2.83;;;6.20;72.50;;;;;;2339100;54;21045;-73
2021/12/10 11:30:47;;;;;;;5.18;2.53;;;6.20;72.30;;;;;;2318358;54;21082;-74
2021/12/10 11:33:22;;;;;;;4.87;2.87;;;6.20;72.10;;;;;;2330833;54;21033;-74
2021/12/10 11:35:54;;;;;;;4.82;2.78;;;6.20;72.10;;;;;;2579129;53;21008;-73
2021/12/10 11:38:28;;;;;;;5.30;3.20;;;6.20;72.00;;;;;;2344779;54;20901;-73
2021/12/10 11:41:06;;;;;;;5.40;3.33;;;6.30;72.00;;;;;;2578715;53;21066;-74
2021/12/10 11:44:17;;;;;;;7.32;3.45;;;6.20;72.00;;;;;;2567378;53;20917;-73
2021/12/10 11:47:12;;;;;;;6.82;3.62;;;6.30;72.10;;;;;;2342938;54;20957;-74
2021/12/10 11:49:39;;;;;;;6.25;3.42;;;6.20;72.20;;;;;;2491176;53;2883125;-73
2021/12/10 11:52:16;;;;;;;5.35;2.90;;;6.30;72.40;;;;;;2567320;53;21011;-73
2021/12/10 11:54:54;;;;;;;6.68;3.17;;;6.30;72.20;;;;;;2341079;54;21690;-74
2021/12/10 11:57:28;;;;;;;4.87;2.37;;;6.30;72.10;;;;;;2315423;54;20959;-72
2021/12/10 11:59:59;;;;;;;5.12;2.22;;;6.30;72.20;;;;;;2314455;54;21011;-71
2021/12/10 12:02:30;;;;;;;3.97;2.20;;;6.30;72.30;;;;;;2313694;54;21070;-71
2021/12/10 12:05:07;;;;;;;4.87;2.22;;;6.30;72.50;;;;;;2318882;54;21060;-74
2021/12/10 12:07:39;;;;;;;3.67;1.98;;;6.30;72.50;;;;;;2551725;54;20923;-73
2021/12/10 12:10:49;;;;;;;5.62;2.78;;;6.30;72.60;;;;;;2289117;55;21126;-73
2021/12/10 12:13:32;;;;;;;4.12;2.28;;;6.40;72.60;;;;;;2552678;54;20971;-73
2021/12/10 12:16:13;;;;;;;3.62;1.67;;;6.40;72.90;;;;;;2550377;54;20969;-72
2021/12/10 12:18:49;;;;;;;3.80;1.73;;;6.40;73.10;;;;;;2317371;54;21009;-73
2021/12/10 12:25:08;;;;;;;3.30;1.60;;;6.50;73.50;;;;;;2315439;54;20967;-72
2021/12/10 12:27:34;;;;;;;3.20;1.30;;;6.50;73.50;;;;;;2551584;53;21257;-73
2021/12/10 12:30:06;;;;;;;3.75;1.42;;;6.50;73.70;;;;;;2312155;54;21799;-74
2021/12/10 12:32:38;;;;;;;3.22;1.45;;;6.50;73.70;;;;;;2313057;54;20958;-74
2021/12/10 12:35:17;;;;;;;2.50;1.30;;;6.60;73.90;;;;;;2314856;54;21606;-71
2021/12/10 12:37:44;;;;;;;3.58;1.48;;;6.60;73.80;;;;;;2554655;54;20987;-75
2021/12/10 12:40:10;;;;;;;2.45;1.30;;;6.60;73.90;;;;;;2554648;53;20967;-73
2021/12/10 12:42:44;;;;;;;4.22;2.17;;;6.70;74.00;;;;;;2313701;54;20983;-75
2021/12/10 12:45:23;;;;;;;2.90;1.70;;;6.70;73.90;;;;;;2550584;53;21055;-72
2021/12/10 12:47:53;;;;;;;2.80;1.40;;;6.70;74.00;;;;;;2311536;54;21014;-75
2021/12/10 12:50:36;;;;;;;3.87;1.65;;;6.80;74.20;;;;;;2314575;54;21015;-72
2021/12/10 12:53:21;;;;;;;2.67;1.17;;;6.80;74.20;;;;;;2314535;54;20959;-75
2021/12/10 12:56:11;;;;;;;3.00;1.50;;;7.00;74.30;;;;;;2313946;54;21121;-74
2021/12/10 12:59:08;;;;;;;3.12;1.77;;;6.90;74.10;;;;;;2562818;53;21468;-77
2021/12/10 13:01:43;;;;;;;4.22;2.05;;;7.00;74.20;;;;;;2327809;54;20947;-74
2021/12/10 13:04:16;;;;;;;3.85;2.00;;;7.00;74.10;;;;;;2337036;55;20911;-72
2021/12/10 13:06:55;;;;;;;3.25;1.60;;;7.00;74.20;;;;;;2554968;53;21017;-74
2021/12/10 13:09:29;;;;;;;3.25;1.83;;;7.10;74.20;;;;;;2337600;55;21761;-72
2021/12/10 13:12:08;;;;;;;4.65;2.12;;;7.10;74.40;;;;;;2317844;55;20900;-75
2021/12/10 13:14:58;;;;;;;3.28;1.67;;;7.10;74.30;;;;;;2326701;54;20979;-73
2021/12/10 13:17:33;;;;;;;5.00;2.60;;;7.20;74.10;;;;;;2306670;55;20959;-71
2021/12/10 13:20:02;;;;;;;3.65;2.05;;;7.20;74.30;;;;;;2337908;54;21540;-74
2021/12/10 13:22:29;;;;;;;3.35;1.65;;;7.20;74.40;;;;;;2312344;54;20959;-73
2021/12/10 13:25:00;;;;;;;2.80;1.60;;;7.30;74.60;;;;;;2536334;54;21792;-71
2021/12/10 13:27:26;;;;;;;4.12;1.70;;;7.30;74.50;;;;;;2301354;55;21464;-72
2021/12/10 13:30:10;;;;;;;3.03;1.58;;;7.30;74.70;;;;;;2337263;54;21047;-73